x

8447387 - Borden Flats Light At Fall River, Ma (bltm3) Weather Station

5:30 - Fri 26th Aug 2016 All times are EDT. -4 hours from GMT.

  • Wind
    13mph, 15mph gusts
  • Aire Temp 75°f
  • Sea Pressure 1015.2mb
  • 8447387 - Borden Flats Light At Fall River, Ma
  • 8447387 - Borden Flats Light At Fall River, Ma

More Historic Weather Station data

Upgrade to MSW Pro to gain access to the past 30 days of data for over 8000 Wavebouys and Weather Stations around the globe.

Join Pro

Comparision Forecast

View Surf forecast
   
vie 08/26 5:30 13 15 mph 1015.2mb 75f
5:24 15 16 mph 1015.2mb 75f
5:18 15 18 mph 1015.2mb 75f
5:12 16 18 mph 1015.2mb 75f
5:06 15 18 mph 1015.2mb 75f
5:00 13 15 mph 1015.2mb 75f
4:54 14 17 mph 1015.2mb 75f
4:48 15 17 mph 1015.2mb 75f
4:42 14 17 mph 1015.1mb 75f
4:36 14 16 mph 1015mb 75f
4:30 15 17 mph 1015mb 75f
4:24 16 18 mph 1015mb 75f
4:18 15 18 mph 1015.1mb 75f
4:12 16 18 mph 1015.2mb 75f
4:06 16 21 mph 1015.1mb 75f
4:00 17 21 mph 1015.1mb 75f
3:54 20 22 mph 1015.2mb 75f
3:48 18 21 mph 1015.1mb 76f
3:42 17 21 mph 1015.2mb 75f
3:36 16 20 mph 1015.2mb 75f
3:30 14 18 mph 1015.2mb 76f
3:24 16 20 mph 1015.2mb 76f
3:18 15 18 mph 1015.3mb 76f
3:12 16 22 mph 1015.2mb 76f
3:06 16 21 mph 1015.2mb 76f
3:00 17 22 mph 1015.2mb 76f
2:54 17 21 mph 1015.2mb 76f
2:48 16 20 mph 1015.3mb -
2:42 17 23 mph 1015.3mb -
2:36 17 22 mph 1015.3mb -
2:30 18 24 mph 1015.4mb 76f
2:18 16 21 mph 1015.5mb 76f
2:12 17 22 mph 1015.4mb 76f
2:06 15 20 mph 1015.5mb 76f
2:00 16 22 mph 1015.5mb 76f
1:54 16 21 mph 1015.5mb 76f
1:48 16 21 mph 1015.5mb -
1:42 16 21 mph 1015.6mb -
1:36 15 22 mph 1015.6mb -
1:30 15 23 mph 1015.6mb 76f
1:24 15 21 mph 1015.6mb 76f
1:18 13 16 mph 1015.8mb 76f
1:12 11 15 mph 1015.8mb 76f
1:06 14 17 mph 1015.8mb 76f
1:00 14 18 mph 1015.8mb 76f
12:54 14 20 mph 1015.9mb 76f
12:48 15 18 mph 1015.8mb 76f
12:42 16 21 mph 1015.8mb 76f
12:36 15 20 mph 1015.8mb 76f
12:30 16 22 mph 1015.9mb 76f
12:24 20 24 mph 1015.8mb 76f
12:18 17 22 mph 1015.9mb 76f
12:12 18 23 mph 1015.8mb 76f
12:06 17 22 mph 1015.9mb 76f
12:00 20 24 mph 1015.9mb 76f
jue 08/25 11:54 16 23 mph 1016mb 76f
11:48 15 20 mph 1016.1mb 76f
11:42 14 17 mph 1016.1mb 76f
11:36 14 16 mph 1016.1mb 75f
11:30 14 21 mph 1016.1mb 75f
11:24 13 16 mph 1016.3mb 75f
11:18 14 17 mph 1016.3mb 75f
11:12 13 17 mph 1016.3mb 75f
11:06 10 14 mph 1016.5mb 75f
11:00 13 16 mph 1016.5mb 75f
10:54 13 17 mph 1016.5mb 75f
10:48 13 16 mph 1016.6mb 75f
10:42 13 17 mph 1016.6mb 75f
10:36 14 18 mph 1016.6mb 75f
10:30 14 16 mph 1016.7mb 75f
10:24 13 16 mph 1016.8mb 75f
10:18  -  mph 1016.8mb 75f
10:12  -  mph 1016.8mb 75f
10:06  -  mph 1016.9mb 75f
10:00  -  mph 1016.9mb 75f
9:54  -  mph 1016.8mb 75f
9:48  -  mph 1016.8mb 75f
9:42  -  mph 1016.8mb 75f
9:36  -  mph 1016.9mb 75f
9:30 14 18 mph 1016.9mb 75f
9:24 15 17 mph 1016.9mb 75f
9:18  -  mph 1016.9mb 75f
9:12  -  mph 1017mb 75f
9:06  -  mph 1017mb 75f
9:00 15 18 mph 1017.1mb 75f
8:54 16 21 mph 1017.1mb 75f
8:48  -  mph 1017.2mb 75f
8:42  -  mph 1017.2mb 75f
8:36  -  mph 1017.2mb 75f
8:30 17 20 mph 1017.2mb 75f
8:24 20 22 mph 1017.1mb 76f
8:18  -  mph 1017mb 76f
8:12  -  mph 1017mb 76f
8:06  -  mph 1017mb 76f
8:00  -  mph 1016.9mb 76f
7:54  -  mph 1016.8mb 76f
7:48 16 20 mph 1016.7mb -
7:42 17 22 mph 1016.8mb -
7:36 20 22 mph 1016.7mb -
7:30 20 22 mph 1016.7mb 76f
7:24 21 23 mph 1016.7mb 76f
7:18  -  mph 1016.8mb 76f
7:12  -  mph 1016.8mb 76f
7:06  -  mph 1016.8mb 76f
7:00  -  mph 1016.7mb 76f
6:54  -  mph 1016.7mb 76f
6:48  -  mph 1016.7mb 76f
6:42  -  mph 1016.6mb 77f
6:36  -  mph 1016.5mb 77f
6:30 21 25 mph 1016.5mb 77f
6:24 22 26 mph 1016.4mb 77f
6:18  -  mph 1016.4mb 77f
6:12  -  mph 1016.5mb 77f
6:06  -  mph 1016.6mb 77f
6:00 21 24 mph 1016.7mb 77f
5:54 22 29 mph 1016.6mb 77f
5:48 23 28 mph 1016.7mb 77f
5:42 23 25 mph 1016.7mb 77f
5:36 23 26 mph 1016.7mb 77f
5:30 23 28 mph 1016.8mb 77f
5:24 23 28 mph 1016.8mb 77f
5:18 18 24 mph 1016.8mb 77f
5:12 17 23 mph 1016.8mb 77f
5:06 20 23 mph 1016.8mb 77f
5:00 22 28 mph 1016.7mb 77f
4:54 23 25 mph 1016.7mb 77f
4:48 22 26 mph 1016.8mb 77f
4:42 23 28 mph 1016.8mb 77f
4:36 23 26 mph 1016.8mb 77f
4:30 22 26 mph 1016.8mb 77f
4:24 21 26 mph 1016.9mb 77f
4:18 23 29 mph 1016.9mb 77f
4:12 22 28 mph 1017.1mb 77f
4:06 20 26 mph 1017.2mb 77f
4:00 22 26 mph 1017.2mb 77f
3:54 21 24 mph 1017.2mb 78f
3:48 23 30 mph 1017.2mb 77f
3:42 24 29 mph 1017.3mb 77f
3:36 23 28 mph 1017.3mb 77f
3:30 25 30 mph 1017.3mb 77f
3:24 24 30 mph 1017.4mb 78f
3:18 22 26 mph 1017.4mb 78f
3:12 20 26 mph 1017.6mb 78f
3:06 25 29 mph 1017.5mb 77f
3:00 22 28 mph 1017.6mb 77f
2:54 22 29 mph 1017.6mb 77f
2:48 24 29 mph 1017.7mb 77f
2:42 20 26 mph 1017.9mb 78f
2:36 21 28 mph 1017.9mb 78f
2:30 21 28 mph 1018.1mb 78f
2:24 21 26 mph 1018.1mb 78f
2:18 21 28 mph 1018.2mb 78f
2:12 22 26 mph 1018.2mb 78f
2:00 21 26 mph 1018.5mb 78f
1:54 23 28 mph 1018.6mb 78f
1:48 22 26 mph 1018.7mb 78f
1:42 21 25 mph 1018.7mb 78f
1:36 22 26 mph 1018.7mb 78f
1:30 20 24 mph 1018.8mb 78f
1:24 22 26 mph 1018.8mb 78f
1:18 22 25 mph 1018.8mb 78f
1:12 20 25 mph 1018.8mb 78f
1:06 22 28 mph 1018.7mb 78f
1:00 22 28 mph 1018.7mb 78f
12:54 22 28 mph 1018.7mb 78f
12:48 21 25 mph 1018.7mb 78f
12:42 22 28 mph 1018.7mb 78f
12:36 20 25 mph 1018.8mb 78f
12:30 22 29 mph 1018.9mb 78f
12:24 20 24 mph 1019mb 78f
12:18 20 24 mph 1018.9mb 78f
12:12 20 24 mph 1018.9mb 78f
12:06 18 23 mph 1018.9mb 78f
12:00 18 24 mph 1019mb 78f
11:54 17 23 mph 1019mb 78f
11:48 18 22 mph 1019.1mb 78f
11:42 18 23 mph 1019.2mb 78f
11:36 20 23 mph 1019.3mb 77f
11:30 17 24 mph 1019.3mb 78f
11:24 20 25 mph 1019.2mb 77f
11:18 14 17 mph 1019.4mb 77f
11:12 16 21 mph 1019.4mb 77f
11:06 15 18 mph 1019.4mb 77f
11:00 14 18 mph 1019.5mb 77f
10:54 14 18 mph 1019.5mb 77f
10:48 15 18 mph 1019.6mb 77f
10:42 15 17 mph 1019.8mb 76f
10:36 13 16 mph 1019.9mb 76f
10:30 16 18 mph 1019.9mb 76f
10:24 17 20 mph 1019.8mb 76f
10:18 17 20 mph 1019.8mb 76f
10:12 16 20 mph 1020mb 76f
10:06 16 20 mph 1020.1mb 76f
10:00 17 20 mph 1020.1mb 75f
9:54 18 22 mph 1020.1mb 75f
9:48 18 22 mph 1020.1mb 75f
9:42 18 21 mph 1020.1mb 75f
9:36 17 20 mph 1020.1mb 75f
9:30 17 20 mph 1020.1mb 74f
9:24 18 21 mph 1020.1mb 74f
9:18 18 21 mph 1020mb 74f
9:12 18 20 mph 1020mb 74f
9:06 18 21 mph 1020.1mb 74f
9:00 18 20 mph 1020.2mb 74f
8:54 17 20 mph 1020.3mb 74f
8:48 18 21 mph 1020.4mb 74f
8:42 18 22 mph 1020.3mb 74f
8:36 18 21 mph 1020.3mb 74f
8:30 20 22 mph 1020.3mb 73f
8:24 18 22 mph 1020.4mb 73f
8:18 20 22 mph 1020.4mb 73f
8:12 20 22 mph 1020.4mb 73f
8:06 18 22 mph 1020.5mb 73f
8:00 18 22 mph 1020.4mb 73f
7:54 18 21 mph 1020.4mb 73f
7:48 17 22 mph 1020.3mb 73f
7:42 18 21 mph 1020.3mb 73f
7:36 18 22 mph 1020.2mb 73f
7:30 18 22 mph 1020.1mb 73f
7:24 18 23 mph 1020.2mb 73f
7:18 20 22 mph 1020.3mb 73f
7:12 21 23 mph 1020.3mb 73f
7:06 20 22 mph 1020.3mb 73f
7:00 16 21 mph 1020.4mb 73f
6:54 16 18 mph 1020.4mb 73f
6:48 15 18 mph 1020.4mb 73f
6:42 15 17 mph 1020.4mb 73f
6:36 14 17 mph 1020.5mb 73f
6:30 13 16 mph 1020.4mb 72f
6:24 14 17 mph 1020.4mb 72f
6:18 14 16 mph 1020.5mb 73f
6:12 14 17 mph 1020.4mb 72f
6:06 15 17 mph 1020.4mb 73f
6:00 14 17 mph 1020.4mb 73f
5:54 13 15 mph 1020.4mb 73f
5:48 11 14 mph 1020.4mb 73f
5:42 11 14 mph 1020.3mb 72f
5:36 14 15 mph 1020.1mb 73f
5:30 14 17 mph 1020.2mb 73f
5:24 14 16 mph 1020.1mb 73f
5:18 14 17 mph 1020.1mb 72f
5:12 13 15 mph 1020.1mb 72f
5:06 14 20 mph 1020.2mb 73f
5:00 15 18 mph 1020.3mb 73f
4:54 15 20 mph 1020.4mb 73f
4:48 16 22 mph 1020.5mb 73f
4:42 17 22 mph 1020.4mb 73f
4:36 17 20 mph 1020.3mb 73f
4:30 18 22 mph 1020.3mb 73f
4:24 17 21 mph 1020.4mb 73f
4:18 15 18 mph 1020.3mb 73f
4:12 14 16 mph 1020.2mb 73f
4:06 14 18 mph 1020.2mb 73f
4:00 10 14 mph 1020.2mb 73f
3:54 11 14 mph 1020.1mb 73f
3:48 11 15 mph 1020mb 73f
3:42 13 16 mph 1020mb 73f
3:36 14 17 mph 1019.9mb 73f
3:30 15 18 mph 1019.9mb 73f
3:24 16 21 mph 1019.9mb 73f
3:18 16 21 mph 1019.9mb 73f
3:12 16 20 mph 1019.9mb 73f
3:06 17 21 mph 1019.9mb 73f
3:00 16 18 mph 1020mb 73f
2:54 16 20 mph 1020.2mb 73f
2:48 15 20 mph 1020.4mb -
2:42 14 18 mph 1020.5mb -
2:36 13 17 mph 1020.6mb -
2:30 14 17 mph 1020.8mb 73f
2:24 14 16 mph 1020.8mb 73f
2:18 15 17 mph 1020.9mb 73f
2:12 15 17 mph 1020.9mb 73f
2:06 17 21 mph 1021mb 73f
2:00 17 21 mph 1021mb 73f
1:54 17 21 mph 1021.1mb 73f
1:48 17 20 mph 1021.2mb 73f
1:42 17 20 mph 1021.2mb 73f
1:36 16 18 mph 1021.4mb 73f
1:30 15 17 mph 1021.4mb 73f
1:24 15 17 mph 1021.6mb 73f
1:18 14 17 mph 1021.6mb 73f
1:12 14 16 mph 1021.8mb 73f
1:06 14 15 mph 1021.8mb 73f
1:00 14 16 mph 1021.8mb 73f
12:54 14 16 mph 1021.8mb 73f
12:48 14 16 mph 1021.9mb 73f
12:42 8 15 mph 1021.9mb 73f
12:36 8 10 mph 1021.9mb 73f
12:30 9 11 mph 1021.9mb 73f
12:24 9 11 mph 1021.8mb 73f
12:18 10 11 mph 1021.8mb 73f
12:12 10 11 mph 1021.8mb 73f
12:06 10 14 mph 1021.8mb 73f
12:00 10 14 mph 1021.8mb 73f
mié 08/24 11:54 10 13 mph 1021.9mb 74f
11:48 11 14 mph 1021.9mb 73f
11:42 11 14 mph 1021.9mb 74f
11:36 14 16 mph 1021.8mb 74f
11:30 14 16 mph 1021.7mb 74f
11:24 15 17 mph 1021.8mb 74f
11:18 14 16 mph 1021.8mb 74f
11:12 14 16 mph 1021.8mb 74f
11:06 13 17 mph 1021.9mb 74f
11:00 10 13 mph 1022mb 73f
10:54 13 15 mph 1022mb 74f
10:48 13 15 mph 1022.1mb 74f
10:42 14 17 mph 1022mb 74f
10:36 15 17 mph 1022.1mb 74f
10:30 16 18 mph 1022.2mb 74f
10:24 16 21 mph 1022.2mb 74f
10:18  -  mph 1022.1mb 74f
10:12  -  mph 1022.2mb 74f
10:06  -  mph 1022.2mb 74f
10:00  -  mph 1022.3mb 74f
9:54  -  mph 1022.4mb 74f
9:48  -  mph - 74f
9:42  -  mph - 74f
9:36  -  mph - 74f
9:30 10 14 mph - 74f
9:24 13 16 mph - 75f
9:18  -  mph 1022.5mb 74f
9:12  -  mph 1022.4mb 75f
9:06  -  mph 1022.4mb 75f
9:00 15 18 mph 1022.4mb 74f
8:54 14 16 mph 1022.5mb 75f
8:48 14 18 mph - 75f
8:42 15 20 mph - 75f
8:36 16 20 mph - 75f
8:30 13 16 mph 1022.6mb 75f
8:24 13 14 mph 1022.5mb 75f
8:18  -  mph - 75f
8:12  -  mph - 76f
8:06  -  mph - 76f
8:00 11 15 mph 1022.4mb 76f
7:54 10 13 mph 1022.5mb 76f
7:48  -  mph 1022.4mb -
7:42  -  mph 1022.3mb -
7:36  -  mph 1022.3mb -
7:30 13 15 mph 1022.3mb 77f
7:24 10 14 mph 1022.2mb 77f
7:18  -  mph 1022.2mb 77f
7:12  -  mph 1022mb 77f
7:06  -  mph 1022mb 78f
7:00  -  mph 1022mb 78f
6:54  -  mph 1021.9mb 78f
6:48  -  mph 1022mb 78f
6:42  -  mph 1022mb 78f
6:36  -  mph 1022mb 78f
6:30 13 15 mph 1021.9mb 78f
6:24 13 15 mph 1021.9mb 79f
6:18  -  mph 1021.9mb 79f
6:06  -  mph 1021.9mb 78f
6:00 16 21 mph 1021.8mb 79f
5:54 15 18 mph 1021.8mb 79f
5:48  -  mph - 79f
5:42  -  mph - 79f
5:36  -  mph - 79f
5:30 15 18 mph 1022mb 80f
5:24 17 21 mph 1021.9mb 79f
5:18 16 20 mph 1021.9mb 80f
5:12 17 21 mph 1021.9mb 80f
5:06 17 22 mph 1021.9mb 80f
5:00 17 21 mph 1021.9mb 80f
4:54 16 21 mph 1021.9mb 80f
4:48 17 21 mph 1021.9mb 80f
4:42 15 18 mph 1022mb 81f
4:36 17 21 mph 1022mb 81f
4:30 18 22 mph 1021.9mb 81f
4:24 18 22 mph 1022mb 81f
4:18 14 17 mph 1022.1mb 81f
4:12 15 18 mph 1022mb 81f
4:06 16 18 mph 1022.1mb 81f
4:00 16 20 mph 1022.1mb 81f
3:54 18 21 mph 1022.1mb 81f
3:48 18 21 mph 1022.2mb 81f
3:42 16 20 mph 1022.2mb 81f
3:36 16 21 mph 1022.4mb 81f
3:30 16 20 mph 1022.5mb 81f
3:24 15 18 mph 1022.6mb 81f
3:18 14 20 mph 1022.7mb 81f
3:12 16 18 mph 1022.8mb 81f
3:06 16 20 mph 1022.8mb 81f
3:00 16 18 mph 1022.9mb 81f
2:54 16 17 mph 1022.9mb 80f
2:48 16 18 mph 1022.8mb 80f
2:42 16 17 mph 1022.8mb 80f
2:36 15 16 mph 1022.9mb 80f
2:30 15 16 mph 1023.1mb 80f
2:24 15 16 mph 1023.1mb 80f
2:18 15 16 mph 1023.1mb 80f
2:12 13 14 mph 1023.2mb 80f
2:06 11 14 mph 1023.2mb 80f
2:00 13 14 mph 1023.3mb 80f
1:54 11 14 mph 1023.3mb 80f
1:48 10 11 mph 1023.3mb 80f
1:42 9 10 mph 1023.3mb 80f
1:36 10 13 mph 1023.4mb 80f
1:30 9 10 mph 1023.5mb 80f
1:24 8 9 mph 1023.6mb 80f
1:18 9 11 mph 1023.5mb 80f
1:12 9 10 mph 1023.5mb 80f
1:06 10 11 mph 1023.6mb 80f
1:00 9 10 mph 1023.7mb 80f
12:54 9 11 mph 1023.7mb 80f
12:48 8 9 mph 1023.7mb 80f
12:42 8
mph
1023.6mb 79f
12:36 9
mph
1023.7mb 79f
12:30 8 10 mph 1023.8mb 79f
12:24 8 10 mph 1023.7mb 79f
12:18 7 8 mph 1023.8mb 78f
12:12 7 8 mph 1023.8mb 78f
12:06 8 9 mph 1023.8mb 78f
12:00 8 10 mph 1023.9mb 78f
11:54 9 11 mph 1023.8mb 78f
11:48 9 10 mph 1023.9mb 78f
11:42 8 10 mph 1024mb 77f
11:36 8 9 mph 1024.1mb 77f
11:30 8 9 mph 1024.2mb 77f
11:24 8 9 mph 1024.3mb 76f
11:18 9 10 mph 1024.4mb 76f
11:12 9
mph
1024.4mb 76f
11:06 8 10 mph 1024.5mb 76f
11:00 8 9 mph 1024.6mb 75f
10:54 8 9 mph 1024.7mb 75f
10:48 8 9 mph 1024.7mb 75f
10:42 8 9 mph 1024.8mb 74f
10:36 7 8 mph 1024.9mb 74f
10:30 9
mph
1025mb 74f
10:24 8 9 mph 1025mb 74f
10:18 7
mph
1025.1mb 74f
10:12 7 8 mph 1025mb 73f
10:06 7 8 mph 1024.9mb 73f
10:00 7 8 mph 1025mb 73f
9:54 7 8 mph 1025mb 72f
9:48 8 9 mph 1025.1mb 72f
9:42 8 9 mph 1025.1mb 72f
9:36 7 9 mph 1025mb 72f
9:30 8 9 mph 1024.9mb 72f
9:24 7 8 mph 1024.9mb 72f
9:18 7 8 mph 1025mb 72f
9:12 7 8 mph 1025mb 71f
9:06 7 9 mph 1025mb 71f
9:00 8 9 mph 1025mb 71f
8:54 7 8 mph 1025.1mb 71f
8:48 7 8 mph 1025.1mb 71f
8:42 7 8 mph 1025.1mb 71f
8:36 7 9 mph 1025.1mb 71f
8:30 7 8 mph 1025.2mb 71f
8:24 8 9 mph 1025.2mb 71f
8:18 8 10 mph 1025.2mb 71f
8:12 9 10 mph 1025.1mb 71f
8:06 9 11 mph 1025.1mb 71f
8:00 9 10 mph 1025.1mb 70f
7:54 9 10 mph 1025.1mb 70f
7:48 9 11 mph 1025.1mb 70f
7:42 9 11 mph 1025.1mb 70f
7:36 9 11 mph 1024.9mb 70f
7:30 10 13 mph 1024.9mb 70f
7:24 10 13 mph 1024.9mb 70f
7:18 11 13 mph 1024.9mb 70f
7:12 10 13 mph 1025mb 70f
7:06 11 13 mph 1025mb 70f
7:00 11 13 mph 1024.9mb 70f
6:54 11 13 mph 1024.9mb 70f
6:48 13 14 mph 1024.8mb 70f
6:42 11 15 mph 1024.7mb 70f
6:30 10 13 mph 1024.7mb 71f
6:24 11 14 mph 1024.7mb 70f
6:18 14 15 mph 1024.6mb 70f
6:12 13 15 mph 1024.6mb 70f
6:06 11 14 mph 1024.6mb 70f
6:00 10 14 mph 1024.6mb 70f
5:54 8 13 mph 1024.6mb 70f
5:48 10 13 mph 1024.6mb 71f
5:42 10 11 mph 1024.6mb 71f
5:36 13 15 mph 1024.5mb 70f
5:30 13 14 mph 1024.4mb 71f
5:24 11 14 mph 1024.3mb 70f
5:18 9 11 mph 1024.5mb 70f
5:12 9 11 mph 1024.4mb 69f
5:06 9 10 mph 1024.3mb 69f
5:00 8 10 mph 1024.3mb 69f
4:54 8 9 mph 1024.3mb 69f
4:48 8 9 mph 1024.3mb 70f
4:42 10 13 mph 1024.3mb 70f
4:36 10 11 mph 1024.3mb 70f
4:30 9 11 mph 1024.4mb 70f
4:24 9 11 mph 1024.4mb 70f
4:18 9 11 mph 1024.5mb 71f
4:12 9 10 mph 1024.6mb 71f
4:06 11 13 mph 1024.5mb 70f
4:00 11 13 mph 1024.5mb 71f
3:54 11 14 mph 1024.4mb 70f
3:48 11 14 mph 1024.5mb 70f
3:42 10 13 mph 1024.5mb 70f
3:36 10 14 mph 1024.5mb 70f
3:30 9 13 mph 1024.6mb 70f
3:24 11 14 mph 1024.6mb 70f
3:18 13 14 mph 1024.6mb 70f
3:12 11 14 mph 1024.7mb 70f
3:06 10 13 mph 1024.6mb 70f
3:00 11 14 mph 1024.6mb 70f
2:54 11 14 mph 1024.6mb 70f
2:48 11 14 mph 1024.6mb -
2:42 11 13 mph 1024.6mb -
2:36 10 11 mph 1024.7mb -
2:30 10 11 mph 1024.8mb 70f
2:24 10 13 mph 1024.8mb 71f
2:18 11 13 mph 1024.8mb 70f
2:12 10 13 mph 1025mb 70f
2:06 10 13 mph 1025mb 70f
2:00 10 11 mph 1025.1mb 70f
1:54 9 11 mph 1025.1mb 71f
1:48 10 13 mph 1025.1mb 71f
1:42 11 13 mph 1025.2mb 71f
1:36 11 14 mph 1025.2mb 71f
1:30 11 14 mph 1025.1mb 71f
1:24 11 14 mph 1025.2mb 71f
1:18 11 14 mph 1025.2mb 71f
1:12 13 14 mph 1025.3mb 71f
1:06 13 15 mph 1025.3mb 71f
1:00 11 14 mph 1025.2mb 71f
12:54 11 13 mph 1025.2mb 71f
12:48 11 13 mph 1025.2mb 71f
12:42 11 14 mph 1025.2mb 71f
12:36 13 14 mph 1025.2mb 71f
12:30 13 16 mph 1025.1mb 71f
12:24 14 15 mph 1025.1mb 71f
12:18 15 17 mph 1025mb 71f
12:12 14 16 mph 1025mb 71f
12:06 14 16 mph 1024.9mb 72f
12:00 15 17 mph 1024.9mb 72f
mar 08/23 11:54 15 17 mph 1024.8mb 72f
11:48 14 17 mph 1024.9mb 72f
11:42 14 16 mph 1024.8mb 72f
11:36 15 18 mph 1024.8mb 71f
11:30 15 18 mph 1024.8mb 71f
11:24 16 20 mph 1024.8mb 71f
11:18 16 18 mph 1024.8mb 71f
11:12 15 18 mph 1024.8mb 72f
11:06 15 20 mph 1024.8mb 72f
11:00 17 20 mph 1024.7mb 71f
10:54 16 21 mph 1024.7mb 72f
10:48 16 20 mph 1024.7mb 71f
10:42 17 21 mph 1024.7mb 71f
10:36 17 21 mph 1024.6mb 71f
10:30 16 18 mph 1024.6mb 72f
10:24 16 20 mph 1024.5mb 72f
10:18 15 18 mph 1024.6mb 72f
10:12 16 18 mph 1024.5mb 71f
10:06 17 20 mph 1024.5mb 71f
10:00 17 21 mph 1024.5mb 71f
9:54 17 20 mph 1024.4mb 71f
9:48 18 22 mph 1024.3mb 71f
9:42 16 20 mph 1024.4mb 72f
9:36 18 22 mph 1024.3mb 72f
9:30 18 20 mph 1024.3mb 72f
9:24 17 21 mph 1024.3mb 72f
9:18  -  mph 1024.4mb 72f
9:12  -  mph 1024.3mb 72f
9:06  -  mph 1024.2mb 72f
9:00  -  mph 1024.2mb 72f
8:54  -  mph 1024.3mb 72f
8:48 10 17 mph 1024.3mb 72f
8:42 17 20 mph 1024.1mb 73f
8:36 17 20 mph 1024.1mb 73f
8:30  -  mph 1024mb 73f
8:24  -  mph 1023.9mb 73f
8:18  -  mph 1023.9mb 72f
8:12  -  mph 1023.9mb 72f
8:06  -  mph 1023.8mb 72f
8:00 10 15 mph 1023.7mb 73f
7:54 11 14 mph 1023.7mb 73f
7:48 14 20 mph - -
7:42 15 17 mph - -
7:36 14 17 mph - -
7:30 14 17 mph 1023.7mb 73f
7:24 15 18 mph 1023.7mb 73f
7:18  -  mph 1023.7mb 74f
7:12  -  mph 1023.7mb 74f
7:06  -  mph 1023.8mb 74f
7:00 15 18 mph 1023.7mb 74f
6:54 16 18 mph 1023.7mb 74f
6:48  -  mph - 74f
6:42  -  mph - 74f
6:36  -  mph - 74f
6:30 17 21 mph 1023.6mb 74f
6:24 16 18 mph 1023.6mb 74f
6:18 16 18 mph 1023.6mb 74f
6:12 17 18 mph 1023.7mb 75f
6:06 15 18 mph 1023.7mb 74f
6:00  -  mph 1023.7mb 75f
5:54  -  mph 1023.7mb 75f
5:48 17 20 mph - 75f
5:42 15 22 mph - 75f
5:36 13 17 mph - 75f
5:30 14 16 mph 1023.8mb 75f
5:24 11 15 mph 1023.9mb 75f
5:18 13 17 mph 1023.9mb 75f
5:12 15 18 mph 1023.9mb 75f
5:06 14 16 mph 1024mb 75f
5:00 11 15 mph 1024.1mb 75f
4:54 13 16 mph 1024mb 75f
4:48 13 15 mph 1024mb 75f
4:42 14 17 mph 1024mb 75f
4:36 14 17 mph 1024mb 75f
4:30 13 16 mph 1024mb 75f
4:24 14 16 mph 1024mb 75f
4:18 14 16 mph 1024.1mb 75f
4:12 13 16 mph 1024.1mb 75f
4:06 13 14 mph 1024.1mb 75f
4:00 14 17 mph 1024.1mb 75f
3:54 14 16 mph 1024.2mb 74f
3:48 14 15 mph 1024.2mb 74f
3:42 15 17 mph 1024.3mb 74f
3:36 16 18 mph 1024.2mb 74f
3:30 16 18 mph 1024.2mb 74f
3:24 16 18 mph 1024.3mb 74f
3:18 17 20 mph 1024.4mb 74f
3:12 18 22 mph 1024.5mb 74f
3:06 21 23 mph 1024.5mb 74f
3:00 17 21 mph 1024.6mb 74f
2:54 17 20 mph 1024.6mb 74f
2:48 16 18 mph 1024.7mb 74f
2:42 16 17 mph 1024.7mb 74f
2:36 15 17 mph 1024.7mb 74f
2:30 15 16 mph 1024.8mb 74f
2:24 14 16 mph 1024.8mb 75f
2:18 13 14 mph 1024.9mb 74f
2:12 11 14 mph 1025mb 74f
2:06 9 11 mph 1025.1mb 75f
2:00 7 9 mph 1025.1mb 75f
1:54 6 7 mph 1025.2mb 75f
1:48 9 10 mph 1025.2mb 74f
1:42 9 14 mph 1025.3mb 75f
1:36 9 11 mph 1025.3mb 74f
1:30 11 13 mph 1025.2mb 74f
1:24 11 13 mph 1025.3mb 74f
1:18 11 14 mph 1025.3mb 74f
1:12 13 15 mph 1025.4mb 74f
1:06 10 14 mph 1025.5mb 74f
1:00 9 13 mph 1025.5mb 74f
12:54 13 17 mph 1025.5mb 73f
12:48 9 13 mph 1025.6mb 73f
12:42 10 11 mph 1025.6mb 73f
12:36 9 10 mph 1025.6mb 73f
12:30 11 14 mph 1025.6mb 73f
12:24 10 13 mph 1025.6mb 73f
12:18 8 10 mph 1025.7mb 73f
12:12 9 11 mph 1025.7mb 73f
12:06 8 10 mph 1025.8mb 73f
12:00 7 8 mph 1025.8mb 73f
11:54 9 13 mph 1025.8mb 73f
11:48 8 9 mph 1025.8mb 72f
11:42 6 9 mph 1025.8mb 73f
11:36 7 8 mph 1025.8mb 73f
11:30 7 9 mph 1025.8mb 72f
11:24 7 9 mph 1025.8mb 72f
11:18 7 9 mph 1025.9mb 73f
11:12 2 7 mph 1025.9mb 74f
11:06 3 5 mph 1026mb 72f
11:00 5 7 mph 1026.1mb 74f
10:54 2 8 mph 1026.1mb 73f
10:48  -  3 mph 1026.1mb 73f
10:42 2 6 mph 1026.1mb 72f
10:36 5 7 mph 1026.1mb 71f
10:30 6 8 mph 1026.1mb 71f
10:24 6 7 mph 1026.1mb 70f
10:18 3 5 mph 1026.1mb 70f
10:12 5 6 mph 1026.2mb 71f
10:06 1 5 mph 1026.1mb 71f
10:00 3 6 mph 1026.1mb 70f
9:54 3 7 mph 1026.1mb 71f
9:48 2 5 mph 1026.1mb 71f
9:42 5 6 mph 1026mb 70f
9:36 5 7 mph 1026mb 70f
9:30 6 7 mph 1025.9mb 69f
9:24 5 7 mph 1025.8mb 69f
9:18 6 7 mph 1025.8mb 69f
9:12 6 8 mph 1025.8mb 69f
9:06 5 7 mph 1025.8mb 68f
9:00 6 7 mph 1025.8mb 68f
8:54 5 7 mph 1025.8mb 67f
8:48 5 7 mph 1025.8mb 68f
8:42 5 7 mph 1025.8mb 67f
8:36 6 7 mph 1025.7mb 66f
8:30 5 6 mph 1025.7mb 65f
8:24 2 3 mph 1025.7mb 64f
8:18  -  1 mph 1025.6mb 64f
8:12 1 2 mph 1025.6mb 65f
8:06 3 5 mph 1025.5mb 64f
8:00 3 6 mph 1025.6mb 65f
7:54 2 5 mph 1025.5mb 63f
7:48 2 5 mph 1025.5mb 64f
7:42 3 6 mph 1025.4mb 64f
7:36 2 3 mph 1025.4mb 64f
7:30  -  2 mph 1025.4mb 64f
7:24 3 5 mph 1025.3mb 63f
7:18 2 5 mph 1025.3mb 63f
7:12 3 5 mph 1025.1mb 62f
7:06 2 5 mph 1025.1mb 62f
7:00  -  1 mph 1025.1mb 61f
6:54  -  2 mph 1025mb 61f
6:48  -  2 mph 1024.9mb 61f
6:42 1 2 mph 1024.9mb 61f
6:36 1 3 mph 1024.9mb 61f
6:30 3 5 mph 1024.8mb 61f
6:24 2 5 mph 1024.8mb 61f
6:18 1 3 mph 1024.7mb 61f
6:12 2 5 mph 1024.6mb 61f
6:06 3 6 mph 1024.5mb 61f
6:00 3 7 mph 1024.5mb 61f
5:54 2 6 mph 1024.3mb 61f
5:48 5 7 mph 1024.3mb 61f
5:42 2 5 mph 1024.2mb 61f
5:36 5 7 mph 1024.1mb 61f
5:30 5 7 mph 1023.9mb 61f
5:24 6 8 mph 1023.8mb 61f
5:18 5 6 mph 1023.7mb 61f
5:12 6 7 mph 1023.6mb 61f
5:06 7 9 mph 1023.5mb 62f
5:00 7 9 mph 1023.4mb 62f
4:54 8 10 mph 1023.4mb 62f
4:48 9 13 mph 1023.3mb 62f
4:42 10 13 mph 1023.3mb 62f
4:36 11 14 mph 1023.3mb 62f
4:30 11 14 mph 1023.2mb 62f
4:24 11 14 mph 1023.1mb 62f
4:18 10 13 mph 1023.1mb 62f
4:12 10 14 mph 1023.1mb 63f
4:06 9 13 mph 1023.1mb 63f
4:00 11 14 mph 1023.1mb 63f
3:54 10 13 mph 1023mb 63f
3:48 9 11 mph 1023.1mb 63f
3:42 10 13 mph 1023mb 63f
3:36 8 10 mph 1023mb 64f
3:30 9 11 mph 1023mb 64f
3:24 9 11 mph 1022.9mb 64f
3:18 9 11 mph 1022.9mb 64f
3:12 10 13 mph 1022.9mb 64f
3:06 10 14 mph 1023mb 64f
3:00 9 11 mph 1023mb 64f
2:54 9 10 mph 1023.1mb 64f
2:48 9 11 mph 1023mb -
2:42 8 9 mph 1023mb -
2:36 8 13 mph 1023mb -
2:30 8 11 mph 1023mb 65f
2:24 8 10 mph 1023mb 65f
2:18 7 9 mph 1022.9mb 65f
2:12 7 9 mph 1022.9mb 65f
2:06 8 11 mph 1022.8mb 66f
2:00 8 10 mph 1022.8mb 66f
1:54 7 9 mph 1022.7mb 66f
1:48 7 9 mph 1022.6mb -
1:42 7 8 mph 1022.6mb -
1:36 8 9 mph 1022.5mb -
1:30 7 9 mph 1022.5mb 66f
1:24 8 11 mph 1022.4mb 66f
1:18 9 13 mph 1022.4mb 66f
1:12 9 11 mph 1022.3mb 66f
1:06 9 11 mph 1022.3mb 67f
1:00 8 10 mph 1022.3mb 66f
12:54 8 10 mph 1022.3mb 66f
12:48 8 10 mph 1022.3mb 66f
12:42 7 9 mph 1022.3mb 67f
12:36 6 7 mph 1022.3mb 67f
12:30 7 9 mph 1022.2mb 67f
12:24 6 8 mph 1022.1mb 67f
12:18 6 9 mph 1022mb 67f
12:12 8 10 mph 1021.9mb 67f
12:06 6 8 mph 1021.9mb 68f
12:00 6 8 mph 1021.9mb 68f
lun 08/22 11:54 9 11 mph 1021.8mb 68f
11:48 7 8 mph 1021.8mb 68f
11:42 6 7 mph 1021.8mb 68f
11:36 6 7 mph 1021.7mb 68f
11:30 5 6 mph 1021.7mb 68f
11:18 7 9 mph 1021.5mb 68f
11:12 7 8 mph 1021.4mb 69f
11:06 9 11 mph 1021.4mb 68f
11:00 8 10 mph 1021.3mb 68f
10:54 8 9 mph 1021.2mb 68f
10:48 7 9 mph 1021.2mb 69f
10:42 9 11 mph 1021.2mb 69f
10:36 9 13 mph 1021.1mb 69f
10:30 10 13 mph 1021mb 69f
10:24 9 11 mph 1020.8mb 69f
10:18 9 10 mph - 70f
10:12 9 13 mph - 69f
10:06 9 11 mph - 69f
10:00  -  mph 1020.4mb 70f
9:54  -  mph 1020.4mb 70f
9:48 6 8 mph 1020.3mb 70f
9:42 6 7 mph 1020.2mb 70f
9:36 3 6 mph 1020.1mb 71f
9:30 3 6 mph 1020mb 71f
9:24 5 7 mph 1019.9mb 71f
9:18  -  mph 1019.7mb 71f
9:12  -  mph 1019.6mb 71f
9:06  -  mph 1019.6mb 71f
9:00  -  mph 1019.4mb 71f
8:54  -  mph 1019.3mb 71f
8:48 8 10 mph 1019.2mb 71f
8:42 9 11 mph 1019.2mb 71f
8:36 8 13 mph 1019mb 72f
8:30 9 13 mph - 72f
8:24 9 14 mph - 72f
8:18 7 10 mph 1018.6mb 73f
8:12 9 11 mph 1018.4mb 73f
8:06 10 13 mph 1018mb 73f
8:00 14 20 mph 1017.7mb 73f
7:54 14 22 mph 1017.6mb 74f
7:48  -  mph 1017.5mb -
7:42  -  mph 1017.4mb -
7:36  -  mph 1017.2mb -
7:30 11 15 mph 1017.1mb 75f
7:24 11 17 mph 1017mb 75f
7:18  -  mph 1016.9mb 76f
7:12  -  mph 1016.7mb 76f
7:06  -  mph 1016.5mb 76f
7:00  -  mph 1016.4mb 77f
6:54  -  mph 1016.3mb 77f
6:48 16 22 mph - -
6:42 17 24 mph - -
6:36 17 25 mph - -
6:30 15 18 mph - 78f
6:24 15 24 mph - 78f
6:18 15 22 mph - 78f
6:12 16 22 mph - 78f
6:06 17 21 mph - 79f
6:00 17 23 mph 1015mb 79f
5:54 21 24 mph 1014.9mb 79f
5:48 17 22 mph - 79f
5:42 15 20 mph - 80f
5:36 17 24 mph - 80f
5:30 18 25 mph 1014.4mb 79f
5:24 14 20 mph 1014.4mb 80f
5:18 17 29 mph 1014.2mb 80f
5:12 18 24 mph 1014.1mb 81f
5:06 18 22 mph 1014mb 80f
5:00 17 29 mph 1014mb 80f
4:54 20 25 mph 1013.8mb 80f
4:48 18 26 mph 1013.7mb 81f
4:42 17 23 mph 1013.6mb 81f
4:36 15 21 mph 1013.6mb 81f
4:30 15 20 mph 1013.5mb 81f
4:24 15 20 mph 1013.4mb 81f
4:18 17 22 mph 1013.2mb 81f
4:12 15 22 mph 1013.2mb 81f
4:06 16 23 mph 1013.1mb 81f
4:00 18 22 mph 1013mb 80f
3:54 17 24 mph 1013mb 80f
3:48 18 23 mph 1012.9mb 80f
3:42 16 23 mph 1012.9mb 81f
3:36 16 24 mph 1012.8mb 81f
3:30 15 20 mph 1012.8mb 81f
3:24 20 24 mph 1012.8mb 81f
3:18 20 25 mph 1012.8mb 81f
3:12 18 24 mph 1012.7mb 80f
3:06 22 26 mph 1012.7mb 79f
3:00 20 28 mph 1012.6mb 79f
2:54 18 23 mph 1012.6mb 78f
2:48 18 23 mph 1012.5mb -
2:42 17 23 mph 1012.5mb -
2:36 22 26 mph 1012.5mb -
2:30 17 24 mph 1012.6mb -
2:24 20 23 mph 1012.5mb -
2:18 20 24 mph 1012.5mb 80f
2:12 16 22 mph 1012.5mb 80f
2:06 15 26 mph 1012.5mb 80f
2:00 16 25 mph 1012.5mb 79f
1:54 16 22 mph 1012.5mb 80f
1:48 17 25 mph 1012.4mb 79f
1:42 18 22 mph 1012.3mb 80f
1:36 17 23 mph 1012.3mb 80f
1:30 17 23 mph 1012.3mb 78f
1:24 18 22 mph 1012.1mb 80f
1:18 17 22 mph 1012.1mb 80f
1:12 17 23 mph 1012.1mb 80f
1:06 17 23 mph 1012.1mb 79f
1:00 14 20 mph 1012mb 78f
12:54 20 26 mph 1012mb 79f
12:48 15 22 mph 1012mb 78f
12:42 18 24 mph 1011.9mb 78f
12:36 21 28 mph 1011.9mb 78f
12:30 17 23 mph 1011.9mb 78f
12:24 18 23 mph 1011.9mb 77f
12:18 20 25 mph 1012mb 77f
12:12 18 22 mph 1011.9mb 77f
12:06 16 21 mph 1011.8mb 77f
12:00 11 17 mph 1011.9mb 78f
11:54 15 21 mph 1011.9mb 78f
11:48 11 15 mph 1011.9mb 78f
11:42 14 20 mph 1011.9mb 78f
11:36 16 24 mph 1011.9mb 77f
11:30 18 22 mph 1011.9mb 76f
11:24 16 22 mph 1011.7mb 77f
11:18 14 17 mph 1011.8mb 76f
11:12 11 17 mph 1011.8mb 76f
11:06 13 17 mph 1011.7mb 75f
11:00 14 18 mph 1011.7mb 76f
10:54 17 21 mph 1011.6mb 76f
10:48 17 21 mph 1011.6mb 76f
10:42 13 15 mph 1011.7mb 76f
10:36 13 18 mph 1011.6mb 75f